createdAt,value
2023-04-11T00:00:25.730Z,3.22
2023-04-11T00:02:57.626Z,2.88
2023-04-11T00:05:30.577Z,2.85
2023-04-11T00:08:02.221Z,3.02
2023-04-11T00:10:34.197Z,2.98
2023-04-11T00:13:05.906Z,3.09
2023-04-11T00:15:37.553Z,3.15
2023-04-11T00:18:09.164Z,2.93
2023-04-11T00:20:40.746Z,2.96
2023-04-11T00:23:12.918Z,3.04
2023-04-11T00:25:44.605Z,2.94
2023-04-11T00:28:16.252Z,3.13
2023-04-11T00:30:47.875Z,2.80
2023-04-11T00:33:19.525Z,2.86
2023-04-11T00:35:51.149Z,3.14
2023-04-11T00:38:23.296Z,2.91
2023-04-11T00:40:55.152Z,2.94
2023-04-11T00:43:26.774Z,3.04
2023-04-11T00:45:58.571Z,3.42
2023-04-11T00:48:31.489Z,3.11
2023-04-11T00:51:03.427Z,2.77
2023-04-11T00:53:37.654Z,3.17
2023-04-11T00:56:10.260Z,2.86
2023-04-11T00:58:42.739Z,2.85
2023-04-11T01:01:14.635Z,2.80
2023-04-11T01:03:46.454Z,2.87
2023-04-11T01:06:20.121Z,3.09
2023-04-11T01:08:52.247Z,2.91
2023-04-11T01:11:24.941Z,2.85
2023-04-11T01:13:56.917Z,2.79
2023-04-11T01:16:29.270Z,2.87
2023-04-11T01:19:00.888Z,3.05
2023-04-11T01:21:33.589Z,2.84
2023-04-11T01:24:05.746Z,2.88
2023-04-11T01:26:37.863Z,3.04
2023-04-11T01:29:10.488Z,3.09
2023-04-11T01:31:43.385Z,2.93
2023-04-11T01:34:15.956Z,3.10
2023-04-11T01:37:01.409Z,2.72
2023-04-11T01:39:36.150Z,3.08
2023-04-11T01:42:10.081Z,2.90
2023-04-11T01:44:42.518Z,3.10
2023-04-11T01:47:14.716Z,2.92
2023-04-11T01:49:46.934Z,3.11
2023-04-11T01:52:18.944Z,2.94
2023-04-11T01:54:50.670Z,3.13
2023-04-11T01:57:22.260Z,2.85
2023-04-11T01:59:53.891Z,3.01
2023-04-11T02:02:25.640Z,3.11
2023-04-11T02:04:57.552Z,3.11
2023-04-11T02:07:29.262Z,2.96
2023-04-11T02:10:01.009Z,3.12
2023-04-11T02:12:32.632Z,3.32
2023-04-11T02:15:04.808Z,2.96
2023-04-11T02:17:36.645Z,2.98
2023-04-11T02:20:09.317Z,2.58
2023-04-11T02:22:41.812Z,3.01
2023-04-11T02:25:13.623Z,2.88
2023-04-11T02:27:45.313Z,2.88
2023-04-11T02:30:17.021Z,2.69
2023-04-11T02:32:49.068Z,2.89
2023-04-11T02:35:20.832Z,2.60
2023-04-11T02:37:52.496Z,2.90
2023-04-11T02:40:24.206Z,2.95
2023-04-11T02:42:55.763Z,2.72
2023-04-11T02:45:27.388Z,2.94
2023-04-11T02:47:59.064Z,2.78
2023-04-11T02:50:30.735Z,2.88
2023-04-11T02:53:02.627Z,3.08
2023-04-11T02:55:34.442Z,2.95
2023-04-11T02:58:06.156Z,3.11
2023-04-11T03:00:37.932Z,2.90
2023-04-11T03:03:12.795Z,3.06
2023-04-11T03:05:48.367Z,2.79
2023-04-11T03:08:24.082Z,2.90
2023-04-11T03:10:58.068Z,3.03
2023-04-11T03:13:30.772Z,2.84
2023-04-11T03:16:02.744Z,3.33
2023-04-11T03:18:36.602Z,3.24
2023-04-11T03:21:11.474Z,3.12
2023-04-11T03:23:47.311Z,3.56
2023-04-11T03:26:20.448Z,3.34
2023-04-11T03:28:52.964Z,3.54
2023-04-11T03:31:25.053Z,3.19
2023-04-11T03:33:58.839Z,3.37
2023-04-11T03:36:30.404Z,3.19
2023-04-11T03:39:07.608Z,3.55
2023-04-11T03:41:39.398Z,3.14
2023-04-11T03:44:14.147Z,3.33
2023-04-11T03:46:46.151Z,3.23
2023-04-11T03:49:18.068Z,3.33
2023-04-11T03:51:57.204Z,3.34
2023-04-11T03:54:30.970Z,3.35
2023-04-11T03:57:02.576Z,3.27
2023-04-11T03:59:35.232Z,3.27
2023-04-11T04:02:12.092Z,3.43
2023-04-11T04:04:50.201Z,3.35
2023-04-11T04:07:31.912Z,3.48
2023-04-11T04:10:20.467Z,3.48
2023-04-11T04:12:55.661Z,3.38
2023-04-11T04:15:37.374Z,3.65
2023-04-11T04:18:09.117Z,3.32
2023-04-11T04:20:51.660Z,3.60
2023-04-11T04:23:24.877Z,3.39
2023-04-11T04:26:23.711Z,3.41
2023-04-11T04:29:01.450Z,3.35
2023-04-11T04:31:37.858Z,3.38
2023-04-11T04:34:11.561Z,3.51
2023-04-11T04:36:48.245Z,3.19
2023-04-11T04:39:26.761Z,3.52
2023-04-11T04:42:00.057Z,3.30
2023-04-11T04:44:37.748Z,3.11
2023-04-11T04:47:18.217Z,3.34
2023-04-11T04:49:54.994Z,3.54
2023-04-11T04:52:28.883Z,3.55
2023-04-11T04:55:01.480Z,3.25
2023-04-11T04:57:33.310Z,3.58
2023-04-11T05:00:08.635Z,3.33
2023-04-11T05:02:40.607Z,3.48
2023-04-11T05:05:13.250Z,3.62
2023-04-11T05:07:45.276Z,3.43
2023-04-11T05:10:17.439Z,3.51
2023-04-11T05:12:49.976Z,3.41
2023-04-11T05:15:22.373Z,3.12
2023-04-11T05:17:55.197Z,3.54
2023-04-11T05:20:27.072Z,3.51
2023-04-11T05:22:58.813Z,3.60
2023-04-11T05:25:30.573Z,3.39
2023-04-11T05:28:02.229Z,3.63
2023-04-11T05:30:33.923Z,3.44
2023-04-11T05:33:05.754Z,2.62
2023-04-11T05:35:37.922Z,2.77
2023-04-11T05:38:09.533Z,2.43
2023-04-11T05:40:41.249Z,2.24
2023-04-11T05:43:13.283Z,2.10
2023-04-11T05:45:45.091Z,1.72
2023-04-11T05:48:17.463Z,2.07
2023-04-11T05:50:51.228Z,1.69
2023-04-11T05:53:23.056Z,1.49
2023-04-11T05:55:54.902Z,1.68
2023-04-11T05:58:26.603Z,1.66
2023-04-11T06:00:58.398Z,1.37
2023-04-11T06:03:30.170Z,1.14
2023-04-11T06:06:02.063Z,0.74
2023-04-11T06:08:33.826Z,0.61
2023-04-11T06:11:05.694Z,0.53
2023-04-11T06:13:37.307Z,0.48
2023-04-11T06:16:09.268Z,0.49
2023-04-11T06:18:40.965Z,0.50
2023-04-11T06:21:13.352Z,0.54
2023-04-11T06:23:45.076Z,0.48
2023-04-11T06:26:17.098Z,0.53
2023-04-11T06:28:51.867Z,0.57
2023-04-11T06:31:23.765Z,0.82
2023-04-11T06:33:56.248Z,0.73
2023-04-11T06:36:29.905Z,0.73
2023-04-11T06:39:01.565Z,0.64
2023-04-11T06:41:33.152Z,0.70
2023-04-11T06:44:04.753Z,0.76
2023-04-11T06:46:37.009Z,0.85
2023-04-11T06:49:18.416Z,1.18
2023-04-11T06:51:50.121Z,1.46
2023-04-11T06:54:26.147Z,1.61
2023-04-11T06:56:58.166Z,1.88
2023-04-11T06:59:30.087Z,2.20
2023-04-11T07:02:01.734Z,2.04
2023-04-11T07:04:33.608Z,1.93
2023-04-11T07:07:05.408Z,1.74
2023-04-11T07:09:36.946Z,1.28
2023-04-11T07:12:08.501Z,1.22
2023-04-11T07:14:40.105Z,1.06
2023-04-11T07:17:12.211Z,1.40
2023-04-11T07:19:44.858Z,1.29
2023-04-11T07:22:16.446Z,1.21
2023-04-11T07:24:51.826Z,1.15
2023-04-11T07:27:23.858Z,1.00
2023-04-11T07:29:56.044Z,1.01
2023-04-11T07:32:27.631Z,1.13
2023-04-11T07:34:59.288Z,1.05
2023-04-11T07:37:30.909Z,1.08
2023-04-11T07:40:02.501Z,1.20
2023-04-11T07:42:34.206Z,1.01
2023-04-11T07:45:08.085Z,1.11
2023-04-11T07:47:39.742Z,1.18
2023-04-11T07:50:11.976Z,1.05
2023-04-11T07:52:43.679Z,1.03
2023-04-11T07:55:15.442Z,0.84
2023-04-11T07:57:47.044Z,1.00
2023-04-11T08:00:20.314Z,1.08
2023-04-11T08:02:52.138Z,1.03
2023-04-11T08:05:24.122Z,0.85
2023-04-11T08:07:56.255Z,0.75
2023-04-11T08:10:27.925Z,0.81
2023-04-11T08:12:59.557Z,0.91
2023-04-11T08:15:31.134Z,0.83
2023-04-11T08:18:02.929Z,0.82
2023-04-11T08:20:34.657Z,1.10
2023-04-11T08:23:06.311Z,1.08
2023-04-11T08:25:37.948Z,1.15
2023-04-11T08:28:09.517Z,1.24
2023-04-11T08:30:41.172Z,1.41
2023-04-11T08:33:12.787Z,1.35
2023-04-11T08:35:44.432Z,1.34
2023-04-11T08:38:16.303Z,1.54
2023-04-11T08:40:48.006Z,1.29
2023-04-11T08:43:19.690Z,1.49
2023-04-11T08:45:51.353Z,1.51
2023-04-11T08:48:22.965Z,1.51
2023-04-11T08:50:54.570Z,1.45
2023-04-11T08:53:27.933Z,1.30
2023-04-11T08:55:59.541Z,1.28
2023-04-11T08:58:31.137Z,1.24
2023-04-11T09:01:25.054Z,1.29
2023-04-11T09:03:57.191Z,1.22
2023-04-11T09:06:29.597Z,1.36
2023-04-11T09:09:04.116Z,1.14
2023-04-11T09:11:53.966Z,1.06
2023-04-11T09:14:26.524Z,0.99
2023-04-11T09:17:03.731Z,1.03
2023-04-11T09:19:35.852Z,1.03
2023-04-11T09:22:08.091Z,0.92
2023-04-11T09:24:39.753Z,1.03
2023-04-11T09:27:17.078Z,1.08
2023-04-11T09:29:49.083Z,0.82
2023-04-11T09:32:31.224Z,0.99
2023-04-11T09:35:15.077Z,1.01
2023-04-11T09:37:52.512Z,1.02
2023-04-11T09:40:28.927Z,1.07
2023-04-11T09:43:03.884Z,1.15
2023-04-11T09:45:44.266Z,1.18
2023-04-11T09:48:32.085Z,1.04
2023-04-11T09:51:12.655Z,1.14
2023-04-11T09:53:45.993Z,1.09
2023-04-11T09:56:17.628Z,1.15
2023-04-11T09:58:49.667Z,1.24
2023-04-11T10:01:23.535Z,1.18
2023-04-11T10:03:56.149Z,1.32
2023-04-11T10:06:34.521Z,1.09
2023-04-11T10:09:08.278Z,1.13
2023-04-11T10:11:44.453Z,1.09
2023-04-11T10:14:48.594Z,1.21
2023-04-11T10:17:22.760Z,1.32
2023-04-11T10:19:56.084Z,1.22
2023-04-11T10:22:42.830Z,1.33
2023-04-11T10:25:19.463Z,1.02
2023-04-11T10:27:57.067Z,1.17
2023-04-11T10:30:48.843Z,1.06
2023-04-11T10:33:23.196Z,1.16
2023-04-11T10:36:02.395Z,1.16
2023-04-11T10:38:37.060Z,1.30
2023-04-11T10:41:16.545Z,1.28
2023-04-11T10:43:49.431Z,1.10
2023-04-11T10:46:21.107Z,1.17
2023-04-11T10:49:03.704Z,1.11
2023-04-11T10:51:35.339Z,1.15
2023-04-11T10:54:24.390Z,1.39
2023-04-11T10:56:56.280Z,1.38
2023-04-11T10:59:33.718Z,1.36
2023-04-11T11:02:05.449Z,1.20
2023-04-11T11:04:38.833Z,1.52
2023-04-11T11:07:15.159Z,1.33
2023-04-11T11:09:50.020Z,1.45
2023-04-11T11:12:21.692Z,1.37
2023-04-11T11:14:53.272Z,1.38
2023-04-11T11:17:24.930Z,1.53
2023-04-11T11:19:56.586Z,1.33
2023-04-11T11:22:28.282Z,1.28
2023-04-11T11:25:08.283Z,1.21
2023-04-11T11:27:39.952Z,1.32
2023-04-11T11:30:12.154Z,1.14
2023-04-11T11:32:43.780Z,1.25
2023-04-11T11:35:15.364Z,1.00
2023-04-11T11:37:47.002Z,1.11
2023-04-11T11:40:20.891Z,1.06
2023-04-11T11:42:52.780Z,1.05
2023-04-11T11:48:01.263Z,1.34
2023-04-11T11:50:34.424Z,1.16
2023-04-11T11:53:16.711Z,1.11
2023-04-11T11:55:48.669Z,1.17
2023-04-11T11:58:20.732Z,1.06
2023-04-11T12:00:54.710Z,1.23
2023-04-11T12:03:27.048Z,1.09
2023-04-11T12:05:58.994Z,1.21
2023-04-11T12:08:33.456Z,1.22
2023-04-11T12:11:12.535Z,1.19
2023-04-11T12:13:44.613Z,1.29
2023-04-11T12:16:21.071Z,1.15
2023-04-11T12:18:52.770Z,1.16
2023-04-11T12:21:24.403Z,1.18
2023-04-11T12:23:56.562Z,1.17
2023-04-11T12:26:28.246Z,1.03
2023-04-11T12:28:59.789Z,1.33
2023-04-11T12:31:31.357Z,1.10
2023-04-11T12:34:03.110Z,1.06
2023-04-11T12:36:35.392Z,1.03
2023-04-11T12:39:06.970Z,1.29
2023-04-11T12:41:38.813Z,1.15
2023-04-11T12:44:10.631Z,1.15
2023-04-11T12:46:42.328Z,1.11
2023-04-11T12:49:14.085Z,1.30
2023-04-11T12:51:45.724Z,1.33
2023-04-11T12:54:17.302Z,1.30
2023-04-11T12:56:48.950Z,1.29
2023-04-11T12:59:20.604Z,1.37
2023-04-11T13:01:52.472Z,1.26
2023-04-11T13:04:24.249Z,1.30
2023-04-11T13:06:55.996Z,1.41
2023-04-11T13:09:28.249Z,1.24
2023-04-11T13:12:01.033Z,1.29
2023-04-11T13:14:32.801Z,1.39
2023-04-11T13:17:04.460Z,1.16
2023-04-11T13:19:36.168Z,1.29
2023-04-11T13:22:07.826Z,1.28
2023-04-11T13:24:39.479Z,1.25
2023-04-11T13:27:11.179Z,1.18
2023-04-11T13:29:42.803Z,1.25
2023-04-11T13:32:14.448Z,1.15
2023-04-11T13:34:46.069Z,1.10
2023-04-11T13:37:17.720Z,1.07
2023-04-11T13:39:49.399Z,1.07
2023-04-11T13:42:21.048Z,0.93
2023-04-11T13:44:52.615Z,0.93
2023-04-11T13:47:24.418Z,0.67
2023-04-11T13:49:55.990Z,0.70
2023-04-11T13:52:27.514Z,0.89
2023-04-11T13:54:59.155Z,0.85
2023-04-11T13:57:30.805Z,0.78
2023-04-11T14:00:02.443Z,0.86
2023-04-11T14:02:36.541Z,0.71
2023-04-11T14:05:09.432Z,0.54
2023-04-11T14:07:41.294Z,0.43
2023-04-11T14:10:12.929Z,0.46
2023-04-11T14:12:44.606Z,0.47
2023-04-11T14:15:16.426Z,0.41
2023-04-11T14:17:48.190Z,0.46
2023-04-11T14:20:20.122Z,0.36
2023-04-11T14:22:52.236Z,0.34
2023-04-11T14:25:23.856Z,0.43
2023-04-11T14:27:55.544Z,0.52
2023-04-11T14:30:27.432Z,0.63
2023-04-11T14:32:59.190Z,0.70
2023-04-11T14:35:30.846Z,0.81
2023-04-11T14:38:02.515Z,0.60
2023-04-11T14:40:34.210Z,0.49
2023-04-11T14:43:05.772Z,0.51
2023-04-11T14:45:37.447Z,0.42
2023-04-11T14:48:09.159Z,0.49
2023-04-11T14:50:40.846Z,0.33
2023-04-11T14:53:12.450Z,0.31
2023-04-11T14:55:44.735Z,0.33
2023-04-11T14:58:16.565Z,0.35
2023-04-11T15:00:49.322Z,0.41
2023-04-11T15:03:21.096Z,0.41
2023-04-11T15:05:53.012Z,0.41
2023-04-11T15:08:24.627Z,0.41
2023-04-11T15:10:56.264Z,0.50
2023-04-11T15:13:27.978Z,0.38
2023-04-11T15:16:01.481Z,0.43
2023-04-11T15:18:33.178Z,0.40
2023-04-11T15:21:05.007Z,0.44
2023-04-11T15:23:36.676Z,0.46
2023-04-11T15:26:08.561Z,0.37
2023-04-11T15:28:40.247Z,0.48
2023-04-11T15:31:11.960Z,0.46
2023-04-11T15:33:43.621Z,0.52
2023-04-11T15:36:15.224Z,0.54
2023-04-11T15:38:49.093Z,0.67
2023-04-11T15:41:20.595Z,0.51
2023-04-11T15:43:52.217Z,0.54
2023-04-11T15:46:24.091Z,0.41
2023-04-11T15:48:55.704Z,0.54
2023-04-11T15:51:27.330Z,0.56
2023-04-11T15:53:59.177Z,0.35
2023-04-11T15:56:31.600Z,0.38
2023-04-11T15:59:03.348Z,0.43
2023-04-11T16:01:34.914Z,0.40
2023-04-11T16:04:06.610Z,0.42
2023-04-11T16:06:38.786Z,0.45
2023-04-11T16:09:10.440Z,0.41
2023-04-11T16:11:42.086Z,0.45
2023-04-11T16:14:13.727Z,0.35
2023-04-11T16:16:45.362Z,0.34
2023-04-11T16:19:16.978Z,0.28
2023-04-11T16:21:48.637Z,0.44
2023-04-11T16:24:20.214Z,0.56
2023-04-11T16:26:51.794Z,0.42
2023-04-11T16:29:23.466Z,0.50
2023-04-11T16:31:55.098Z,0.47
2023-04-11T16:34:29.894Z,0.52
2023-04-11T16:37:04.907Z,0.43
2023-04-11T16:39:36.436Z,0.59
2023-04-11T16:42:08.024Z,0.60
2023-04-11T16:44:39.617Z,0.61
2023-04-11T16:47:11.271Z,0.65
2023-04-11T16:49:44.356Z,0.66
2023-04-11T16:52:16.595Z,0.84
2023-04-11T16:54:48.337Z,0.92
2023-04-11T16:57:19.935Z,0.75
2023-04-11T16:59:51.580Z,0.86
2023-04-11T17:02:23.289Z,0.86
2023-04-11T17:04:54.937Z,0.80
2023-04-11T17:07:26.541Z,0.86
2023-04-11T17:09:58.131Z,0.85
2023-04-11T17:12:29.674Z,0.83
2023-04-11T17:15:01.245Z,0.89
2023-04-11T17:17:33.088Z,0.89
2023-04-11T17:20:06.805Z,0.94
2023-04-11T17:22:42.724Z,1.14
2023-04-11T17:25:14.794Z,1.16
2023-04-11T17:27:46.568Z,1.20
2023-04-11T17:30:18.247Z,1.18
2023-04-11T17:32:50.067Z,1.19
2023-04-11T17:35:21.780Z,1.03
2023-04-11T17:37:54.036Z,1.10
2023-04-11T17:40:25.673Z,1.26
2023-04-11T17:42:57.466Z,1.10
2023-04-11T17:45:29.933Z,1.19
2023-04-11T17:48:02.279Z,1.31
2023-04-11T17:50:34.075Z,1.32
2023-04-11T17:53:05.773Z,1.37
2023-04-11T17:55:37.364Z,1.20
2023-04-11T17:58:43.161Z,0.97
2023-04-11T18:01:14.897Z,1.05
2023-04-11T18:03:46.627Z,1.07
2023-04-11T18:06:18.325Z,1.00
2023-04-11T18:08:51.721Z,1.19
2023-04-11T18:11:23.824Z,1.01
2023-04-11T18:13:55.964Z,1.07
2023-04-11T18:16:27.915Z,1.09
2023-04-11T18:18:59.730Z,0.99
2023-04-11T18:21:31.335Z,0.86
2023-04-11T18:24:03.048Z,1.16
2023-04-11T18:26:34.661Z,0.92
2023-04-11T18:29:06.228Z,1.03
2023-04-11T18:31:37.831Z,1.11
2023-04-11T18:34:09.731Z,1.28
2023-04-11T18:36:41.615Z,1.20
2023-04-11T18:39:13.307Z,1.32
2023-04-11T18:41:45.306Z,1.31
2023-04-11T18:44:17.337Z,1.39
2023-04-11T18:46:51.451Z,1.42
2023-04-11T18:49:23.610Z,1.38
2023-04-11T18:51:55.238Z,1.46
2023-04-11T18:54:26.872Z,1.48
2023-04-11T18:56:59.358Z,1.24
2023-04-11T18:59:33.616Z,1.20
2023-04-11T19:02:06.899Z,1.36
2023-04-11T19:04:38.995Z,1.16
2023-04-11T19:07:10.673Z,1.34
2023-04-11T19:09:43.228Z,1.39
2023-04-11T19:12:14.932Z,1.77
2023-04-11T19:14:46.567Z,1.98
2023-04-11T19:17:18.743Z,1.88
2023-04-11T19:19:53.068Z,1.53
2023-04-11T19:22:24.692Z,0.98
2023-04-11T19:24:56.271Z,1.07
2023-04-11T19:27:27.995Z,0.99
2023-04-11T19:29:59.677Z,1.11
2023-04-11T19:32:32.081Z,0.96
2023-04-11T19:35:07.029Z,0.71
2023-04-11T19:37:39.100Z,0.62
2023-04-11T19:40:11.102Z,0.71
2023-04-11T19:42:44.811Z,0.70
2023-04-11T19:45:16.406Z,0.61
2023-04-11T19:47:48.067Z,0.57
2023-04-11T19:50:19.968Z,0.66
2023-04-11T19:52:55.117Z,0.71
2023-04-11T19:55:27.281Z,0.85
2023-04-11T19:57:58.887Z,0.84
2023-04-11T20:00:30.713Z,0.79
2023-04-11T20:03:02.475Z,0.66
2023-04-11T20:05:34.162Z,0.70
2023-04-11T20:08:05.794Z,0.73
2023-04-11T20:10:38.492Z,0.84
2023-04-11T20:13:10.116Z,0.94
2023-04-11T20:15:41.772Z,0.78
2023-04-11T20:18:13.522Z,0.75
2023-04-11T20:20:45.375Z,0.75
2023-04-11T20:23:16.967Z,0.68
2023-04-11T20:25:48.612Z,0.72
2023-04-11T20:28:20.198Z,0.78
2023-04-11T20:30:51.979Z,0.76
2023-04-11T20:33:23.625Z,0.72
2023-04-11T20:35:55.328Z,0.88
2023-04-11T20:38:26.952Z,0.83
2023-04-11T20:40:58.669Z,0.86
2023-04-11T20:43:31.197Z,0.89
2023-04-11T20:46:04.076Z,0.96
2023-04-11T20:48:35.812Z,1.03
2023-04-11T20:51:07.488Z,0.98
2023-04-11T20:53:39.086Z,1.04
2023-04-11T20:56:10.756Z,1.01
2023-04-11T20:58:42.382Z,1.19
2023-04-11T21:01:14.051Z,1.13
2023-04-11T21:03:46.006Z,1.14
2023-04-11T21:06:17.835Z,1.29
2023-04-11T21:08:49.399Z,1.16
2023-04-11T21:11:21.010Z,1.10
2023-04-11T21:13:52.656Z,1.29
2023-04-11T21:16:24.451Z,1.32
2023-04-11T21:18:56.214Z,1.24
2023-04-11T21:21:27.872Z,1.17
2023-04-11T21:23:59.622Z,1.22
2023-04-11T21:26:31.295Z,1.48
2023-04-11T21:29:02.912Z,1.45
2023-04-11T21:31:34.628Z,1.48
2023-04-11T21:34:06.274Z,1.29
2023-04-11T21:36:37.893Z,1.28
2023-04-11T21:39:09.598Z,1.42
2023-04-11T21:41:47.460Z,1.33
2023-04-11T21:44:23.105Z,1.24
2023-04-11T21:46:58.768Z,1.43
2023-04-11T21:49:31.798Z,1.71
2023-04-11T21:52:03.379Z,1.51
2023-04-11T21:54:35.450Z,1.59
2023-04-11T21:57:07.076Z,1.51
2023-04-11T21:59:38.912Z,1.51
2023-04-11T22:02:10.669Z,1.48
2023-04-11T22:04:51.625Z,1.45
2023-04-11T22:07:27.839Z,1.66
2023-04-11T22:09:59.419Z,1.64
2023-04-11T22:12:31.067Z,1.48
2023-04-11T22:15:03.085Z,1.59
2023-04-11T22:17:34.895Z,1.57
2023-04-11T22:20:06.967Z,1.56
2023-04-11T22:22:38.550Z,1.54
2023-04-11T22:25:10.175Z,1.44
2023-04-11T22:27:41.795Z,1.56
2023-04-11T22:30:14.138Z,1.57
2023-04-11T22:32:45.698Z,1.62
2023-04-11T22:35:17.685Z,1.66
2023-04-11T22:37:49.347Z,1.55
2023-04-11T22:40:21.331Z,1.58
2023-04-11T22:42:53.619Z,1.79
2023-04-11T22:45:25.162Z,1.72
2023-04-11T22:47:56.811Z,1.69
2023-04-11T22:50:28.478Z,1.70
2023-04-11T22:53:00.112Z,1.56
2023-04-11T22:55:32.651Z,1.68
2023-04-11T22:58:04.262Z,1.61
2023-04-11T23:00:35.836Z,1.77
2023-04-11T23:03:07.643Z,1.69
2023-04-11T23:05:39.975Z,1.61
2023-04-11T23:08:11.604Z,1.86
2023-04-11T23:10:43.358Z,1.77
2023-04-11T23:13:15.173Z,1.75
2023-04-11T23:15:46.960Z,1.86
2023-04-11T23:18:19.048Z,2.13
2023-04-11T23:20:50.923Z,1.96
2023-04-11T23:23:22.880Z,2.20
2023-04-11T23:25:54.561Z,2.23
2023-04-11T23:28:26.289Z,2.35
2023-04-11T23:30:58.105Z,2.12
2023-04-11T23:33:29.881Z,2.20
2023-04-11T23:36:01.489Z,2.21
2023-04-11T23:38:33.130Z,2.02
2023-04-11T23:43:56.671Z,2.06
2023-04-11T23:46:28.675Z,2.20
2023-04-11T23:49:00.314Z,2.05
2023-04-11T23:51:31.913Z,1.98
2023-04-11T23:54:03.656Z,1.92
2023-04-11T23:56:35.270Z,2.14
2023-04-11T23:59:06.890Z,1.99
